Time;durP1;ratioP1;P1;durP2;ratioP2;P2;SDS_P1;SDS_P2;PMS_P1;PMS_P2;Temp;Humidity;BMP_temperature;BMP_pressure;BME280_temperature;BME280_humidity;BME280_pressure;Samples;Min_cycle;Max_cycle;Signal;HPM_P1;HPM_P2
2023/01/26 00:00:53;;;;;;;117.28;36.25;;;-0.50;99.90;;;;;;4990683;28;20118;-75
2023/01/26 00:03:19;;;;;;;128.98;39.85;;;-0.50;99.90;;;;;;4997503;28;20031;-75
2023/01/26 00:05:45;;;;;;;141.45;42.63;;;-0.50;99.90;;;;;;4995699;28;20038;-75
2023/01/26 00:08:11;;;;;;;133.25;40.60;;;-0.50;99.90;;;;;;4994320;28;20131;-75
2023/01/26 00:10:39;;;;;;;141.02;41.40;;;-0.50;99.90;;;;;;4991339;28;20030;-74
2023/01/26 00:13:06;;;;;;;139.63;42.75;;;-0.40;99.90;;;;;;4997467;28;20069;-75
2023/01/26 00:15:33;;;;;;;137.80;40.67;;;-0.40;99.90;;;;;;4991523;28;20053;-75
2023/01/26 00:17:59;;;;;;;99.55;28.40;;;-0.50;99.90;;;;;;4999156;28;20019;-75
2023/01/26 00:20:26;;;;;;;124.00;38.47;;;-0.40;99.90;;;;;;4997271;28;20035;-75
2023/01/26 00:22:51;;;;;;;120.60;41.55;;;-0.50;99.90;;;;;;4998013;28;20039;-75
2023/01/26 00:25:17;;;;;;;136.73;41.90;;;-0.50;99.90;;;;;;4995007;28;20038;-75
2023/01/26 00:27:43;;;;;;;139.32;43.13;;;-0.50;99.90;;;;;;4995951;28;20093;-76
2023/01/26 00:30:09;;;;;;;144.18;44.22;;;-0.40;99.90;;;;;;5000786;28;20040;-75
2023/01/26 00:32:35;;;;;;;127.45;41.10;;;-0.40;99.90;;;;;;4998738;28;20103;-75
2023/01/26 00:35:01;;;;;;;122.22;37.58;;;-0.40;99.90;;;;;;4997897;28;20026;-75
2023/01/26 00:37:27;;;;;;;141.77;43.65;;;-0.40;99.90;;;;;;4995908;28;20115;-75
2023/01/26 00:39:52;;;;;;;117.05;37.60;;;-0.50;99.90;;;;;;4997486;28;20444;-74
2023/01/26 00:42:19;;;;;;;134.85;39.65;;;-0.50;99.90;;;;;;5001233;28;20054;-75
2023/01/26 00:44:45;;;;;;;124.68;39.95;;;-0.50;99.90;;;;;;4995420;28;20041;-75
2023/01/26 00:47:11;;;;;;;139.07;41.13;;;-0.50;99.90;;;;;;4997760;28;20130;-74
2023/01/26 00:49:37;;;;;;;134.18;40.25;;;-0.60;99.90;;;;;;4994400;28;20023;-75
2023/01/26 00:52:03;;;;;;;141.35;40.75;;;-0.50;99.90;;;;;;4995966;28;20022;-75
2023/01/26 00:54:29;;;;;;;134.43;41.97;;;-0.50;99.90;;;;;;5002195;28;20117;-76
2023/01/26 00:56:55;;;;;;;134.18;40.55;;;-0.40;99.90;;;;;;4995587;28;20051;-75
2023/01/26 00:59:21;;;;;;;129.32;40.83;;;-0.50;99.90;;;;;;4996994;28;20129;-75
2023/01/26 01:01:47;;;;;;;128.18;39.70;;;-0.50;99.90;;;;;;4996723;28;20032;-76
2023/01/26 01:04:13;;;;;;;111.10;34.35;;;-0.50;99.90;;;;;;4994357;28;20026;-75
2023/01/26 01:06:39;;;;;;;137.95;40.58;;;-0.50;99.90;;;;;;4995980;28;20033;-75
2023/01/26 01:09:05;;;;;;;119.97;36.35;;;-0.50;99.90;;;;;;5001564;28;20018;-75
2023/01/26 01:11:31;;;;;;;127.95;37.28;;;-0.50;99.90;;;;;;4995581;28;20090;-75
2023/01/26 01:13:57;;;;;;;121.80;37.63;;;-0.50;99.90;;;;;;4994237;28;20026;-76
2023/01/26 01:16:23;;;;;;;136.77;39.92;;;-0.50;99.90;;;;;;5000712;28;20054;-76
2023/01/26 01:18:53;;;;;;;131.77;38.22;;;-0.50;99.90;;;;;;5006985;28;20034;-75
2023/01/26 01:21:19;;;;;;;129.70;38.20;;;-0.50;99.90;;;;;;5007267;28;20027;-75
2023/01/26 01:23:44;;;;;;;114.30;35.55;;;-0.50;99.90;;;;;;5007433;28;20037;-74
2023/01/26 01:26:11;;;;;;;133.85;37.88;;;-0.50;99.90;;;;;;5007401;28;20042;-74
2023/01/26 01:28:37;;;;;;;120.15;35.65;;;-0.50;99.90;;;;;;5022228;28;20532;-75
2023/01/26 01:31:04;;;;;;;129.00;35.88;;;-0.50;99.90;;;;;;5022086;28;20019;-76
2023/01/26 01:33:30;;;;;;;126.25;38.25;;;-0.50;99.90;;;;;;5006912;28;20089;-75
2023/01/26 01:36:01;;;;;;;143.48;39.88;;;-0.50;99.90;;;;;;5006629;28;20033;-75
2023/01/26 01:38:27;;;;;;;128.25;39.78;;;-0.50;99.90;;;;;;5006676;28;20030;-75
2023/01/26 01:40:53;;;;;;;141.23;39.85;;;-0.50;99.90;;;;;;5006959;28;20026;-75
2023/01/26 01:43:20;;;;;;;138.82;41.03;;;-0.50;99.90;;;;;;5022001;28;20545;-75
2023/01/26 01:45:47;;;;;;;137.10;39.90;;;-0.50;99.90;;;;;;5022273;28;20061;-76
2023/01/26 01:48:28;;;;;;;151.02;42.00;;;-0.40;99.90;;;;;;5021970;28;20039;-76
2023/01/26 01:51:02;;;;;;;151.18;43.58;;;-0.40;99.90;;;;;;5006008;28;20118;-76
2023/01/26 01:53:33;;;;;;;148.20;43.03;;;-0.30;99.90;;;;;;5005260;28;20031;-76
2023/01/26 01:56:04;;;;;;;136.77;38.72;;;-0.30;99.90;;;;;;5005016;28;20093;-76
2023/01/26 01:58:34;;;;;;;152.60;43.30;;;-0.30;99.90;;;;;;5006584;28;20030;-75
2023/01/26 02:01:00;;;;;;;149.27;41.42;;;-0.30;99.90;;;;;;5006619;28;20092;-75
2023/01/26 02:03:27;;;;;;;157.90;43.47;;;-0.30;99.90;;;;;;5004078;28;20487;-75
2023/01/26 02:05:55;;;;;;;146.75;42.55;;;-0.30;99.90;;;;;;5003820;28;20026;-75
2023/01/26 02:08:26;;;;;;;153.77;41.15;;;-0.20;99.90;;;;;;5005241;28;20030;-75
2023/01/26 02:10:55;;;;;;;122.07;34.90;;;-0.20;99.90;;;;;;5004898;28;20034;-74
2023/01/26 02:13:22;;;;;;;130.85;39.00;;;-0.20;99.90;;;;;;5006498;28;20085;-75
2023/01/26 02:15:49;;;;;;;117.43;34.20;;;-0.30;99.90;;;;;;5004927;28;20040;-75
2023/01/26 02:18:16;;;;;;;115.57;35.20;;;-0.30;99.90;;;;;;5006333;28;20077;-74
2023/01/26 02:21:15;;;;;;;112.78;36.03;;;-0.30;99.90;;;;;;5006248;28;20038;-76
2023/01/26 02:23:58;;;;;;;121.78;36.35;;;-0.30;99.90;;;;;;4997653;28;20034;-74
2023/01/26 02:26:30;;;;;;;132.18;39.03;;;-0.30;99.90;;;;;;5005949;28;20054;-75
2023/01/26 02:28:56;;;;;;;118.63;35.53;;;-0.30;99.90;;;;;;5005876;28;20030;-74
2023/01/26 02:31:22;;;;;;;126.38;37.28;;;-0.30;99.90;;;;;;5005924;28;20022;-74
2023/01/26 02:33:49;;;;;;;113.35;36.47;;;-0.20;99.90;;;;;;5006029;28;20054;-75
2023/01/26 02:36:28;;;;;;;119.47;36.30;;;-0.20;99.90;;;;;;5004648;28;20038;-75
2023/01/26 02:39:14;;;;;;;128.90;36.85;;;-0.20;99.90;;;;;;5003629;28;20062;-74
2023/01/26 02:44:26;;;;;;;123.50;36.83;;;-0.20;99.90;;;;;;5005437;28;20053;-74
2023/01/26 02:46:57;;;;;;;125.35;35.47;;;-0.20;99.90;;;;;;5005964;28;20028;-75
2023/01/26 02:52:07;;;;;;;111.93;34.03;;;-0.20;99.90;;;;;;5005811;28;20032;-74
2023/01/26 02:57:17;;;;;;;100.97;32.38;;;-0.10;99.90;;;;;;5005277;28;20616;-75
2023/01/26 02:59:43;;;;;;;111.15;33.55;;;-0.10;99.90;;;;;;5004251;28;20038;-75
2023/01/26 03:02:09;;;;;;;104.18;32.67;;;-0.10;99.90;;;;;;5004264;28;20031;-74
2023/01/26 03:04:35;;;;;;;85.43;28.83;;;-0.10;99.90;;;;;;5005325;28;20038;-76
2023/01/26 03:07:00;;;;;;;94.50;30.52;;;-0.10;99.90;;;;;;5004093;28;20041;-74
2023/01/26 03:09:26;;;;;;;103.18;31.17;;;-0.10;99.90;;;;;;5003707;28;20094;-74
2023/01/26 03:11:51;;;;;;;103.47;31.38;;;-0.10;99.90;;;;;;5003858;28;20053;-75
2023/01/26 03:14:18;;;;;;;109.10;32.72;;;-0.10;99.90;;;;;;5003782;28;20500;-75
2023/01/26 03:16:43;;;;;;;102.43;32.13;;;-0.10;99.90;;;;;;5005267;28;20038;-75
2023/01/26 03:27:28;;;;;;;89.10;29.50;;;0.00;99.90;;;;;;5005161;28;20041;-76
2023/01/26 03:29:55;;;;;;;90.97;28.30;;;0.00;99.90;;;;;;5004705;28;20031;-75
2023/01/26 03:32:20;;;;;;;104.75;32.08;;;0.00;99.90;;;;;;5004755;28;20046;-76
2023/01/26 03:34:46;;;;;;;98.18;30.90;;;0.00;99.90;;;;;;5003843;28;20033;-77
2023/01/26 03:37:12;;;;;;;97.03;29.50;;;0.00;99.90;;;;;;5003593;28;20030;-75
2023/01/26 03:56:19;;;;;;;97.00;31.00;;;0.10;99.90;;;;;;5004525;28;20097;-75
2023/01/26 03:58:46;;;;;;;92.85;28.70;;;0.10;99.90;;;;;;5003489;28;20037;-77
2023/01/26 04:01:20;;;;;;;91.43;28.45;;;0.00;99.90;;;;;;5004722;28;20101;-75
2023/01/26 04:09:16;;;;;;;99.78;28.38;;;0.10;99.90;;;;;;5004341;28;20041;-76
2023/01/26 04:11:42;;;;;;;95.95;28.80;;;0.10;99.90;;;;;;5003234;28;20094;-77
2023/01/26 04:22:24;;;;;;;112.45;32.63;;;0.20;99.90;;;;;;5004572;28;20042;-77
2023/01/26 04:24:50;;;;;;;111.05;32.55;;;0.20;99.90;;;;;;5003095;28;20034;-76
2023/01/26 04:27:16;;;;;;;89.63;28.83;;;0.20;99.90;;;;;;5004436;28;20029;-76
2023/01/26 04:29:41;;;;;;;94.15;28.63;;;0.20;99.90;;;;;;5003111;28;20026;-76
2023/01/26 04:32:07;;;;;;;102.35;31.63;;;0.20;99.90;;;;;;5002829;28;20030;-76
2023/01/26 04:34:32;;;;;;;97.78;28.63;;;0.20;99.90;;;;;;5003032;28;20057;-75
2023/01/26 04:37:00;;;;;;;88.55;27.75;;;0.20;99.90;;;;;;5002814;28;20122;-76
2023/01/26 04:39:26;;;;;;;81.53;24.27;;;0.20;99.90;;;;;;5003737;28;20518;-76
2023/01/26 04:41:51;;;;;;;85.07;26.95;;;0.30;99.90;;;;;;5003976;28;20030;-77
2023/01/26 04:44:17;;;;;;;81.15;25.42;;;0.20;99.90;;;;;;5003077;28;20102;-76
2023/01/26 04:46:43;;;;;;;87.03;27.27;;;0.20;99.90;;;;;;5002987;28;20027;-77
2023/01/26 04:49:09;;;;;;;96.43;28.15;;;0.20;99.90;;;;;;5004215;28;20044;-75
2023/01/26 04:51:34;;;;;;;79.30;24.67;;;0.20;99.90;;;;;;5002751;28;20037;-77
2023/01/26 04:54:00;;;;;;;83.78;25.08;;;0.20;99.90;;;;;;5002437;28;20035;-76
2023/01/26 04:56:31;;;;;;;91.22;28.90;;;0.20;99.90;;;;;;5002404;28;20069;-75
2023/01/26 04:59:02;;;;;;;84.70;25.42;;;0.30;99.90;;;;;;5002741;28;20129;-75
2023/01/26 05:01:28;;;;;;;86.70;26.80;;;0.30;99.90;;;;;;5002748;28;20030;-77
2023/01/26 05:03:54;;;;;;;82.88;25.08;;;0.30;99.90;;;;;;5007692;28;20026;-77
2023/01/26 05:06:20;;;;;;;83.30;24.40;;;0.30;99.90;;;;;;5007681;28;20475;-75
2023/01/26 05:08:45;;;;;;;80.85;25.83;;;0.30;99.90;;;;;;5007495;28;20026;-76
2023/01/26 05:11:11;;;;;;;73.85;23.92;;;0.30;99.90;;;;;;5007524;28;20084;-74
2023/01/26 05:13:36;;;;;;;78.63;22.92;;;0.30;99.90;;;;;;5007525;28;20066;-75
2023/01/26 05:16:03;;;;;;;78.00;22.83;;;0.30;99.90;;;;;;5007301;28;20117;-75
2023/01/26 05:18:29;;;;;;;76.57;22.38;;;0.30;99.90;;;;;;5005893;28;20030;-76
2023/01/26 05:20:55;;;;;;;68.35;21.80;;;0.30;99.90;;;;;;5007410;28;20094;-75
2023/01/26 05:23:21;;;;;;;64.78;20.85;;;0.40;99.90;;;;;;5005905;28;20035;-76
2023/01/26 05:25:46;;;;;;;63.75;20.52;;;0.40;99.90;;;;;;5007373;28;20033;-76
2023/01/26 05:28:12;;;;;;;63.35;20.52;;;0.40;99.90;;;;;;5006088;28;20034;-75
2023/01/26 05:30:37;;;;;;;69.53;19.80;;;0.40;99.90;;;;;;5005760;28;20030;-75
2023/01/26 05:33:04;;;;;;;65.35;19.90;;;0.40;99.90;;;;;;5005748;28;20030;-74
2023/01/26 05:35:30;;;;;;;58.97;17.90;;;0.40;99.90;;;;;;5006835;28;20026;-75
2023/01/26 05:37:55;;;;;;;58.25;18.90;;;0.40;99.90;;;;;;5007062;28;20034;-75
2023/01/26 05:40:21;;;;;;;52.28;18.80;;;0.40;99.90;;;;;;5005464;28;20043;-76
2023/01/26 05:42:47;;;;;;;57.08;18.77;;;0.40;99.90;;;;;;5007108;28;20026;-75
2023/01/26 05:45:13;;;;;;;53.70;17.38;;;0.40;99.90;;;;;;5006957;28;20483;-77
2023/01/26 05:47:38;;;;;;;56.70;18.00;;;0.40;99.90;;;;;;5005606;28;20054;-75
2023/01/26 05:50:05;;;;;;;57.92;18.08;;;0.40;99.90;;;;;;4992474;28;20117;-75
2023/01/26 05:52:31;;;;;;;51.08;15.88;;;0.40;99.90;;;;;;4995689;28;20060;-74
2023/01/26 05:54:57;;;;;;;46.97;16.25;;;0.40;99.90;;;;;;4994718;28;20105;-75
2023/01/26 05:57:22;;;;;;;47.97;16.33;;;0.40;99.90;;;;;;4994171;28;20026;-77
2023/01/26 05:59:48;;;;;;;48.40;16.95;;;0.50;99.90;;;;;;5003035;28;20035;-75
2023/01/26 06:02:13;;;;;;;42.97;14.15;;;0.50;99.90;;;;;;5006596;28;20038;-75
2023/01/26 06:04:39;;;;;;;44.90;14.95;;;0.50;99.90;;;;;;5006820;28;20054;-77
2023/01/26 06:07:05;;;;;;;45.25;14.30;;;0.50;99.90;;;;;;5006354;28;20475;-75
2023/01/26 06:09:31;;;;;;;41.97;14.15;;;0.50;99.90;;;;;;5020410;28;20026;-75
2023/01/26 06:11:56;;;;;;;45.42;14.77;;;0.50;99.90;;;;;;5006476;28;20066;-77
2023/01/26 06:14:22;;;;;;;44.22;14.40;;;0.50;99.90;;;;;;5004389;28;20148;-75
2023/01/26 06:16:48;;;;;;;43.17;13.77;;;0.60;99.90;;;;;;5005018;28;20384;-76
2023/01/26 06:19:13;;;;;;;39.88;12.95;;;0.60;99.90;;;;;;5006235;28;20038;-74
2023/01/26 06:21:39;;;;;;;30.25;11.15;;;0.60;99.90;;;;;;5000923;28;20031;-75
2023/01/26 06:24:05;;;;;;;41.85;12.82;;;0.60;99.90;;;;;;5004530;28;20042;-76
2023/01/26 06:26:30;;;;;;;32.92;10.43;;;0.60;99.90;;;;;;5006067;28;20431;-75
2023/01/26 06:28:56;;;;;;;29.52;11.23;;;0.60;99.90;;;;;;5003619;28;20034;-75
2023/01/26 06:31:28;;;;;;;29.42;11.10;;;0.60;99.90;;;;;;5004648;28;20022;-78
2023/01/26 06:33:54;;;;;;;29.95;10.13;;;0.60;99.90;;;;;;5003751;28;20479;-76
2023/01/26 06:36:20;;;;;;;31.02;10.80;;;0.60;99.90;;;;;;5004577;28;20030;-76
2023/01/26 06:38:47;;;;;;;31.13;11.43;;;0.60;99.90;;;;;;5005792;28;20088;-78
2023/01/26 06:41:14;;;;;;;30.10;10.07;;;0.60;99.90;;;;;;5004387;28;20030;-77
2023/01/26 06:43:46;;;;;;;26.33;10.35;;;0.60;99.90;;;;;;5002746;28;20710;-76
2023/01/26 06:46:12;;;;;;;36.25;11.05;;;0.60;99.90;;;;;;5002845;28;20034;-77
2023/01/26 06:48:38;;;;;;;33.58;12.02;;;0.70;99.90;;;;;;5003236;28;20039;-77
2023/01/26 06:51:19;;;;;;;30.42;11.20;;;0.70;99.90;;;;;;5000421;28;20034;-77
2023/01/26 06:53:55;;;;;;;33.20;11.73;;;0.70;99.90;;;;;;4991568;28;20407;-76
2023/01/26 06:56:22;;;;;;;39.47;12.98;;;0.60;99.90;;;;;;5005301;28;20046;-75
2023/01/26 06:58:47;;;;;;;40.95;13.13;;;0.70;99.90;;;;;;5005625;28;20041;-77
2023/01/26 07:01:20;;;;;;;36.97;12.88;;;0.70;99.90;;;;;;5003616;28;20105;-77
2023/01/26 07:03:53;;;;;;;40.75;12.98;;;0.70;99.90;;;;;;5005289;28;20040;-75
2023/01/26 07:06:19;;;;;;;41.80;13.00;;;0.70;99.90;;;;;;5003924;28;20034;-77
2023/01/26 07:08:45;;;;;;;38.20;12.82;;;0.70;99.90;;;;;;5004081;28;20026;-77
2023/01/26 07:11:11;;;;;;;42.28;14.10;;;0.70;99.90;;;;;;5004041;28;20026;-78
2023/01/26 07:13:37;;;;;;;41.95;14.13;;;0.70;99.90;;;;;;5003823;28;20027;-77
2023/01/26 07:16:05;;;;;;;43.55;14.90;;;0.70;99.90;;;;;;5017281;28;20149;-75
2023/01/26 07:18:31;;;;;;;51.05;15.05;;;0.70;99.90;;;;;;5024742;28;20040;-75
2023/01/26 07:21:11;;;;;;;44.95;14.85;;;0.70;99.90;;;;;;5024913;28;20029;-77
2023/01/26 07:23:37;;;;;;;43.40;14.80;;;0.70;99.90;;;;;;5023400;28;20022;-79
2023/01/26 07:26:04;;;;;;;44.85;15.63;;;0.70;99.90;;;;;;5024351;28;20037;-79
2023/01/26 07:28:30;;;;;;;47.97;14.00;;;0.70;99.90;;;;;;5023253;28;20069;-79
2023/01/26 07:31:03;;;;;;;50.45;16.35;;;0.70;99.90;;;;;;5023042;28;20030;-74
2023/01/26 07:33:30;;;;;;;49.58;15.65;;;0.70;99.90;;;;;;5006055;28;20086;-77
2023/01/26 07:35:56;;;;;;;51.05;15.35;;;0.80;99.90;;;;;;5004802;28;20026;-76
2023/01/26 07:38:21;;;;;;;53.53;16.20;;;0.80;99.90;;;;;;5003000;28;20093;-75
2023/01/26 07:40:47;;;;;;;54.97;16.25;;;0.80;99.90;;;;;;5001891;28;20077;-76
2023/01/26 07:43:16;;;;;;;52.08;16.80;;;0.80;99.90;;;;;;5002970;28;20030;-76
2023/01/26 07:45:52;;;;;;;53.75;17.15;;;0.80;99.90;;;;;;5004408;28;20038;-77
2023/01/26 07:48:19;;;;;;;55.58;16.75;;;0.80;99.90;;;;;;5002196;28;20038;-76
2023/01/26 07:50:48;;;;;;;58.20;17.95;;;0.90;99.90;;;;;;5003305;28;20054;-77
2023/01/26 07:53:18;;;;;;;62.85;17.10;;;0.90;99.90;;;;;;5004712;28;20022;-77
2023/01/26 07:55:44;;;;;;;54.40;18.50;;;0.90;99.90;;;;;;5000564;28;20043;-75
2023/01/26 07:58:10;;;;;;;59.70;18.20;;;0.90;99.90;;;;;;5001645;28;20025;-75
2023/01/26 08:00:36;;;;;;;61.50;18.38;;;0.90;99.90;;;;;;5000869;28;20070;-77
2023/01/26 08:03:03;;;;;;;53.88;17.10;;;0.90;99.90;;;;;;5003305;28;20037;-76
2023/01/26 08:05:30;;;;;;;63.67;18.67;;;0.90;99.90;;;;;;5003273;28;20120;-75
2023/01/26 08:07:59;;;;;;;68.32;18.65;;;0.90;99.90;;;;;;5004034;28;20082;-75
2023/01/26 08:10:30;;;;;;;58.60;16.02;;;1.00;99.90;;;;;;4995225;28;20038;-75
2023/01/26 08:13:02;;;;;;;63.15;17.23;;;1.00;99.90;;;;;;4994952;28;20034;-75
2023/01/26 08:15:28;;;;;;;75.05;18.10;;;0.90;99.90;;;;;;5003082;28;20026;-74
2023/01/26 08:17:54;;;;;;;62.47;16.98;;;0.90;99.90;;;;;;5018707;28;20026;-77
2023/01/26 08:20:20;;;;;;;63.88;18.55;;;1.00;99.90;;;;;;5001399;28;20121;-76
2023/01/26 08:22:46;;;;;;;65.97;18.95;;;0.90;99.90;;;;;;5002874;28;20057;-75
2023/01/26 08:25:11;;;;;;;67.75;19.42;;;1.00;99.90;;;;;;4994804;28;20566;-76
2023/01/26 08:27:37;;;;;;;88.32;20.58;;;1.00;99.90;;;;;;5002136;28;20185;-75
2023/01/26 08:30:03;;;;;;;77.43;21.30;;;1.00;99.90;;;;;;5004188;28;20049;-75
2023/01/26 08:32:29;;;;;;;78.95;20.88;;;1.00;99.90;;;;;;5004193;28;20027;-76
2023/01/26 08:34:55;;;;;;;88.00;21.13;;;1.00;99.90;;;;;;5002877;28;20119;-75
2023/01/26 08:37:20;;;;;;;84.72;22.30;;;1.00;99.90;;;;;;5004372;28;20030;-77
2023/01/26 08:39:46;;;;;;;85.72;22.48;;;1.00;99.90;;;;;;5006559;28;20041;-75
2023/01/26 08:42:11;;;;;;;78.47;23.15;;;1.10;99.90;;;;;;5006956;28;20038;-76
2023/01/26 08:44:37;;;;;;;94.38;23.13;;;1.00;99.90;;;;;;5003432;28;20026;-78
2023/01/26 08:47:03;;;;;;;82.10;22.05;;;1.10;99.90;;;;;;5005642;28;20056;-75
2023/01/26 08:49:28;;;;;;;96.85;22.30;;;1.10;99.90;;;;;;5005974;28;20033;-74
2023/01/26 08:51:54;;;;;;;117.38;23.60;;;1.10;99.90;;;;;;5005924;28;20121;-76
2023/01/26 08:54:19;;;;;;;90.57;22.20;;;1.10;99.90;;;;;;5006244;28;20033;-75
2023/01/26 08:56:45;;;;;;;136.75;24.23;;;1.10;99.90;;;;;;5007723;28;20046;-75
2023/01/26 08:59:10;;;;;;;109.50;23.73;;;1.10;99.90;;;;;;5005228;28;20573;-76
2023/01/26 09:01:36;;;;;;;97.22;24.67;;;1.10;99.90;;;;;;5006462;28;20026;-75
2023/01/26 09:04:02;;;;;;;93.05;24.15;;;1.20;99.90;;;;;;4999521;28;20122;-76
2023/01/26 09:06:29;;;;;;;114.50;21.13;;;1.20;99.90;;;;;;5006157;28;20117;-75
2023/01/26 09:08:54;;;;;;;106.90;23.13;;;1.20;99.90;;;;;;5007456;28;20406;-75
2023/01/26 09:11:20;;;;;;;98.63;23.60;;;1.20;99.90;;;;;;5006190;28;20053;-75
2023/01/26 09:13:55;;;;;;;136.80;24.88;;;1.20;99.90;;;;;;5006632;28;20042;-73
2023/01/26 09:16:21;;;;;;;103.57;25.73;;;1.20;99.90;;;;;;5005563;28;20034;-75
2023/01/26 09:18:53;;;;;;;139.38;24.20;;;1.20;99.90;;;;;;5007295;28;20054;-75
2023/01/26 09:21:19;;;;;;;109.32;23.13;;;1.30;99.90;;;;;;5007328;28;20034;-74
2023/01/26 09:23:45;;;;;;;126.45;24.67;;;1.30;99.90;;;;;;5007377;28;20026;-75
2023/01/26 09:26:10;;;;;;;174.30;24.63;;;1.30;99.90;;;;;;5002379;28;20027;-74
2023/01/26 09:28:36;;;;;;;107.07;24.42;;;1.30;99.90;;;;;;5003036;28;20037;-74
2023/01/26 09:31:07;;;;;;;111.38;23.90;;;1.30;99.90;;;;;;5005948;28;20030;-74
2023/01/26 09:33:33;;;;;;;112.03;24.08;;;1.30;99.90;;;;;;5005277;28;20791;-75
2023/01/26 09:36:07;;;;;;;101.88;24.58;;;1.40;99.90;;;;;;5005461;28;20026;-74
2023/01/26 09:38:32;;;;;;;110.53;24.00;;;1.40;99.90;;;;;;5005783;28;20106;-74
2023/01/26 09:41:06;;;;;;;123.10;24.38;;;1.40;99.90;;;;;;5000821;28;20087;-74
2023/01/26 09:43:43;;;;;;;118.50;26.02;;;1.40;99.90;;;;;;4985897;28;20114;-75
2023/01/26 09:46:31;;;;;;;113.05;23.70;;;1.40;99.90;;;;;;4985802;28;20058;-74
2023/01/26 09:49:14;;;;;;;120.68;24.02;;;1.50;99.90;;;;;;4998092;28;20066;-74
2023/01/26 09:51:49;;;;;;;148.13;24.88;;;1.60;99.90;;;;;;4994580;28;20031;-74
2023/01/26 09:54:36;;;;;;;107.65;26.52;;;1.60;99.90;;;;;;5002452;28;20022;-74
2023/01/26 09:57:13;;;;;;;103.32;25.30;;;1.60;99.90;;;;;;4995920;28;20103;-75
2023/01/26 10:00:06;;;;;;;91.03;24.50;;;1.70;99.90;;;;;;5015122;28;20049;-75
2023/01/26 10:03:02;;;;;;;94.95;25.70;;;1.70;99.90;;;;;;5019367;28;20042;-74
2023/01/26 10:05:44;;;;;;;149.25;28.02;;;1.80;99.90;;;;;;5001825;28;20081;-75
2023/01/26 10:08:15;;;;;;;160.98;23.63;;;1.80;99.90;;;;;;4987178;28;20714;-75
2023/01/26 10:10:58;;;;;;;150.90;25.17;;;1.90;99.90;;;;;;4999496;28;20105;-74
2023/01/26 10:13:25;;;;;;;113.07;25.27;;;2.00;99.90;;;;;;5005814;28;20048;-75
2023/01/26 10:16:06;;;;;;;136.82;26.85;;;2.00;99.90;;;;;;5004805;28;20094;-76
2023/01/26 10:18:39;;;;;;;129.75;27.70;;;2.00;99.90;;;;;;5005569;28;20037;-75
2023/01/26 10:21:08;;;;;;;113.80;28.17;;;2.10;99.90;;;;;;5001017;28;20042;-77
2023/01/26 10:23:34;;;;;;;106.75;25.02;;;2.10;99.90;;;;;;5008972;28;20035;-76
2023/01/26 10:26:19;;;;;;;138.73;24.35;;;2.00;99.90;;;;;;4986120;28;20023;-76
2023/01/26 10:28:46;;;;;;;77.20;22.42;;;2.10;99.90;;;;;;4994501;28;20038;-75
2023/01/26 10:31:16;;;;;;;96.40;22.85;;;2.10;99.90;;;;;;4995727;28;20035;-76
2023/01/26 10:34:11;;;;;;;97.88;24.10;;;2.20;99.90;;;;;;5003077;28;20035;-76
2023/01/26 10:36:40;;;;;;;109.20;24.40;;;2.20;99.90;;;;;;4997128;28;20081;-76
2023/01/26 10:39:11;;;;;;;151.30;25.63;;;2.30;99.90;;;;;;5004938;28;20046;-76
2023/01/26 10:41:38;;;;;;;166.02;23.63;;;2.30;99.90;;;;;;5002094;28;20387;-76
2023/01/26 10:44:24;;;;;;;159.02;22.98;;;2.20;99.90;;;;;;4991679;28;20070;-76
2023/01/26 10:47:12;;;;;;;142.30;22.65;;;2.30;99.90;;;;;;4994695;28;20030;-80
2023/01/26 10:49:38;;;;;;;147.27;23.20;;;2.30;99.90;;;;;;5001593;28;20022;-76
2023/01/26 10:52:07;;;;;;;143.80;22.08;;;2.30;99.90;;;;;;4998219;28;20027;-76
2023/01/26 10:54:35;;;;;;;130.38;22.17;;;2.30;99.90;;;;;;4998247;28;20019;-78
2023/01/26 10:57:21;;;;;;;149.48;21.25;;;2.30;99.90;;;;;;4999204;28;20133;-76
2023/01/26 10:59:59;;;;;;;108.53;21.25;;;2.40;99.90;;;;;;4994740;28;20035;-77
2023/01/26 11:02:27;;;;;;;137.25;21.77;;;2.50;99.90;;;;;;5001962;28;20037;-76
2023/01/26 11:05:08;;;;;;;119.32;20.33;;;2.50;99.90;;;;;;4998364;28;20503;-76
2023/01/26 11:07:39;;;;;;;152.55;20.30;;;2.60;99.90;;;;;;5011531;28;20519;-74
2023/01/26 11:10:24;;;;;;;91.38;18.27;;;2.60;99.90;;;;;;5000192;28;20446;-74
2023/01/26 11:13:04;;;;;;;169.52;18.90;;;2.60;99.90;;;;;;5003911;28;20034;-74
2023/01/26 11:15:36;;;;;;;102.40;18.13;;;2.70;99.90;;;;;;5002871;28;20058;-74
2023/01/26 11:18:14;;;;;;;112.47;17.50;;;2.70;99.90;;;;;;4994653;28;20026;-74
2023/01/26 11:20:45;;;;;;;107.38;17.73;;;2.70;99.90;;;;;;4993160;28;20046;-76
2023/01/26 11:23:37;;;;;;;99.53;18.08;;;2.80;99.90;;;;;;4996591;28;20105;-76
2023/01/26 11:26:24;;;;;;;92.68;19.95;;;2.80;99.90;;;;;;4994003;28;20138;-77
2023/01/26 11:29:23;;;;;;;68.88;15.77;;;2.90;99.90;;;;;;4994744;28;20057;-77
2023/01/26 11:32:20;;;;;;;75.45;18.55;;;3.00;99.90;;;;;;5002866;28;20038;-78
2023/01/26 11:35:17;;;;;;;65.85;17.05;;;3.10;99.90;;;;;;5004767;28;20387;-78
2023/01/26 11:38:13;;;;;;;49.22;15.48;;;3.20;99.90;;;;;;5003771;28;20398;-78
2023/01/26 11:41:16;;;;;;;56.97;14.82;;;3.30;99.90;;;;;;5004778;28;20125;-77
2023/01/26 11:44:01;;;;;;;57.97;15.85;;;3.30;99.90;;;;;;4999219;28;20034;-77
2023/01/26 11:46:56;;;;;;;58.00;15.48;;;3.40;99.90;;;;;;5002393;28;20050;-76
2023/01/26 11:49:40;;;;;;;;;;;3.50;99.90;;;;;;4987339;28;20058;-76
2023/01/26 11:52:42;;;;;;;54.78;14.20;;;3.50;99.90;;;;;;4988198;28;19906;-76
2023/01/26 11:55:29;;;;;;;54.72;15.82;;;3.60;99.90;;;;;;4985243;28;20147;-75
2023/01/26 11:58:26;;;;;;;70.18;19.30;;;3.60;99.90;;;;;;5003046;28;20091;-78
2023/01/26 12:00:56;;;;;;;64.13;17.35;;;3.70;99.90;;;;;;5003256;28;20045;-76
2023/01/26 12:03:34;;;;;;;93.72;26.60;;;3.80;99.90;;;;;;5003403;28;20026;-77
2023/01/26 12:06:05;;;;;;;77.95;20.80;;;3.90;99.90;;;;;;5003138;28;20046;-77
2023/01/26 12:08:55;;;;;;;87.40;27.10;;;4.20;99.90;;;;;;5003340;28;20094;-77
2023/01/26 12:11:39;;;;;;;42.83;13.55;;;4.40;99.90;;;;;;5004509;28;20094;-77
2023/01/26 12:14:07;;;;;;;45.83;14.18;;;4.70;99.90;;;;;;5007223;28;20498;-76
2023/01/26 12:16:49;;;;;;;40.88;13.00;;;4.80;99.90;;;;;;5007218;28;20458;-77
2023/01/26 12:19:58;;;;;;;49.55;12.35;;;5.00;99.90;;;;;;5007247;28;20450;-75
2023/01/26 12:22:39;;;;;;;44.20;12.50;;;5.00;99.90;;;;;;5012487;28;20038;-76
2023/01/26 12:25:32;;;;;;;37.85;11.73;;;5.20;99.90;;;;;;5008431;28;20033;-76
2023/01/26 12:28:05;;;;;;;31.80;10.35;;;5.20;99.90;;;;;;5016201;28;20022;-77
2023/01/26 12:30:48;;;;;;;31.05;9.18;;;5.20;99.90;;;;;;5026067;28;20236;-76
2023/01/26 12:33:14;;;;;;;44.08;9.75;;;5.30;99.90;;;;;;5010225;28;20109;-75
2023/01/26 12:35:42;;;;;;;44.78;10.10;;;5.30;99.90;;;;;;5008322;28;20030;-76
2023/01/26 12:38:17;;;;;;;45.97;9.52;;;5.20;99.90;;;;;;5008249;28;20042;-75
2023/01/26 12:40:58;;;;;;;37.67;9.35;;;5.10;99.90;;;;;;5008325;28;20038;-76
2023/01/26 12:43:41;;;;;;;37.00;8.75;;;5.10;99.90;;;;;;5008149;28;20046;-75
2023/01/26 12:46:08;;;;;;;35.85;8.88;;;4.90;99.90;;;;;;5008059;28;20069;-76
2023/01/26 12:48:53;;;;;;;31.77;9.55;;;4.80;99.90;;;;;;5006970;28;20034;-75
2023/01/26 12:51:28;;;;;;;48.67;10.07;;;4.80;99.90;;;;;;5007838;28;20057;-75
2023/01/26 12:54:05;;;;;;;49.75;10.60;;;4.80;99.90;;;;;;5004887;28;20558;-75
2023/01/26 12:56:42;;;;;;;62.10;11.80;;;4.60;99.90;;;;;;4996244;28;20053;-75
2023/01/26 12:59:35;;;;;;;48.20;13.07;;;4.60;99.90;;;;;;5021830;28;20049;-75
2023/01/26 13:02:26;;;;;;;71.78;12.85;;;4.60;99.90;;;;;;4999969;28;20137;-75
2023/01/26 13:04:52;;;;;;;48.78;13.15;;;4.60;99.90;;;;;;5008051;28;20030;-75
2023/01/26 13:07:31;;;;;;;65.32;14.57;;;4.60;99.90;;;;;;5006370;28;20035;-75
2023/01/26 13:10:16;;;;;;;55.70;13.45;;;4.70;99.90;;;;;;5006745;28;20030;-75
2023/01/26 13:12:53;;;;;;;60.60;13.73;;;4.80;99.90;;;;;;5007399;28;20037;-75
2023/01/26 13:15:20;;;;;;;62.25;14.15;;;4.80;99.90;;;;;;5013889;28;20105;-75
2023/01/26 13:17:55;;;;;;;45.67;12.05;;;4.90;99.90;;;;;;5023952;28;20040;-75
2023/01/26 13:20:23;;;;;;;59.00;14.10;;;4.90;99.90;;;;;;5025333;28;20040;-75
2023/01/26 13:22:49;;;;;;;49.80;12.95;;;5.00;99.90;;;;;;5026285;28;20037;-76
2023/01/26 13:25:30;;;;;;;47.03;13.20;;;5.10;99.90;;;;;;5025172;28;20025;-76
2023/01/26 13:28:11;;;;;;;46.38;12.48;;;5.10;99.90;;;;;;5024873;28;20030;-75
2023/01/26 13:30:45;;;;;;;63.20;14.75;;;5.20;99.90;;;;;;5025077;28;20029;-75
2023/01/26 13:33:15;;;;;;;59.53;14.27;;;5.20;99.90;;;;;;5026184;28;20030;-74
2023/01/26 13:35:41;;;;;;;46.10;14.00;;;5.30;99.90;;;;;;5010285;28;20037;-74